createdAt,value
2023-05-15T09:19:34.735Z,1.60
2023-05-15T09:22:25.802Z,1.67
2023-05-15T09:25:11.707Z,1.38
2023-05-15T09:27:57.062Z,1.20
2023-05-15T09:30:43.206Z,1.65
2023-05-15T09:33:36.610Z,1.63
2023-05-15T09:36:23.537Z,2.03
2023-05-15T09:39:10.414Z,1.90
2023-05-15T09:42:13.087Z,1.40
2023-05-15T09:44:58.788Z,1.60
2023-05-15T09:47:44.790Z,1.45
2023-05-15T09:50:38.115Z,1.70
2023-05-15T09:53:24.490Z,1.10
2023-05-15T09:56:10.612Z,1.73
2023-05-15T09:58:57.844Z,1.73
2023-05-15T10:01:47.776Z,1.52
2023-05-15T10:04:39.478Z,1.45
2023-05-15T10:07:32.000Z,1.60
2023-05-15T10:10:17.656Z,1.13
2023-05-15T10:13:05.793Z,1.40
2023-05-15T10:15:52.608Z,1.35
2023-05-15T10:18:40.914Z,3.10
2023-05-15T10:21:28.521Z,1.40
2023-05-15T10:24:16.255Z,1.85
2023-05-15T10:27:03.084Z,1.77
2023-05-15T10:29:56.223Z,1.50
2023-05-15T10:32:56.056Z,1.23
2023-05-15T10:35:48.607Z,1.52
2023-05-15T10:38:40.535Z,1.33
2023-05-15T10:41:37.334Z,1.45
2023-05-15T10:44:23.657Z,1.58
2023-05-15T10:47:10.081Z,1.83
2023-05-15T10:50:03.183Z,1.50
2023-05-15T10:52:54.967Z,1.60
2023-05-15T10:55:41.241Z,1.85
2023-05-15T10:58:31.887Z,1.95
2023-05-15T11:01:32.910Z,1.70
2023-05-15T11:04:25.499Z,1.13
2023-05-15T11:07:17.335Z,1.75
2023-05-15T11:10:29.288Z,1.58
2023-05-15T11:13:15.983Z,1.25
2023-05-15T11:16:04.009Z,1.58
2023-05-15T11:18:50.763Z,1.20
2023-05-15T11:21:48.497Z,1.48
2023-05-15T11:24:47.460Z,1.40
2023-05-15T11:27:57.963Z,2.10
2023-05-15T11:30:50.513Z,1.40
2023-05-15T11:33:39.575Z,1.55
2023-05-15T11:36:32.388Z,2.03
2023-05-15T11:39:24.968Z,1.65
2023-05-15T11:42:17.657Z,1.35
2023-05-15T11:45:04.887Z,1.00
2023-05-15T11:47:51.326Z,1.50
2023-05-15T11:50:42.382Z,1.85
2023-05-15T11:53:29.789Z,1.45
2023-05-15T11:56:31.185Z,2.25
2023-05-15T11:59:16.616Z,1.00
2023-05-15T12:02:02.105Z,1.02
2023-05-15T12:04:49.987Z,1.05
2023-05-15T12:07:44.185Z,1.40
2023-05-15T12:10:31.608Z,1.20
2023-05-15T12:13:18.452Z,1.08
2023-05-15T12:16:06.066Z,1.17
2023-05-15T12:18:51.675Z,1.23
2023-05-15T12:21:43.507Z,1.00
2023-05-15T12:24:29.047Z,1.40
2023-05-15T12:27:17.774Z,1.17
2023-05-15T12:30:04.342Z,0.90
2023-05-15T12:32:50.392Z,1.95
2023-05-15T12:35:37.361Z,3.85
2023-05-15T12:38:24.942Z,1.40
2023-05-15T12:41:13.683Z,5.45
2023-05-15T12:43:59.669Z,5.75
2023-05-15T12:46:46.429Z,2.72
2023-05-15T12:49:35.458Z,2.00
2023-05-15T12:52:27.952Z,2.30
2023-05-15T12:55:33.574Z,2.38
2023-05-15T12:58:20.077Z,1.42
2023-05-15T13:01:06.292Z,1.27
2023-05-15T13:03:53.300Z,1.35
2023-05-15T13:06:46.352Z,1.83
2023-05-15T13:09:33.885Z,1.30
2023-05-15T13:12:23.106Z,2.20
2023-05-15T13:15:21.487Z,1.30
2023-05-15T13:18:06.760Z,1.05
2023-05-15T13:20:52.345Z,1.17
2023-05-15T13:23:37.951Z,1.02
2023-05-15T13:26:23.400Z,0.77
2023-05-15T13:29:09.029Z,1.55
2023-05-15T13:31:54.582Z,1.20
2023-05-15T13:34:40.685Z,1.20
2023-05-15T13:37:25.964Z,0.80
2023-05-15T13:40:12.250Z,0.90
2023-05-15T13:42:57.792Z,0.82
2023-05-15T13:45:43.252Z,0.95
2023-05-15T13:48:28.714Z,1.30
2023-05-15T13:51:14.323Z,1.00
2023-05-15T13:54:00.503Z,1.40
2023-05-15T13:56:46.398Z,0.80
2023-05-15T13:59:31.685Z,0.82
2023-05-15T14:02:18.339Z,1.23
2023-05-15T14:05:04.812Z,1.00
2023-05-15T14:07:49.974Z,2.38
2023-05-15T14:10:37.252Z,2.60
2023-05-15T14:13:23.617Z,3.30
2023-05-15T14:16:09.397Z,7.15
2023-05-15T14:18:54.939Z,2.83
2023-05-15T14:21:40.623Z,4.35
2023-05-15T14:24:25.736Z,3.42
2023-05-15T14:27:11.464Z,1.80
2023-05-15T14:29:56.882Z,1.63
2023-05-15T14:32:42.598Z,1.92
2023-05-15T14:35:28.065Z,1.55
2023-05-15T14:38:13.561Z,1.27
2023-05-15T14:40:59.284Z,1.50
2023-05-15T14:43:44.602Z,1.70
2023-05-15T14:46:30.182Z,1.65
2023-05-15T14:49:16.030Z,1.30
2023-05-15T14:52:01.640Z,1.27
2023-05-15T14:54:54.137Z,1.10
2023-05-15T14:57:49.330Z,1.30
2023-05-15T15:00:34.730Z,1.48
2023-05-15T15:03:22.120Z,1.38
2023-05-15T15:06:08.091Z,1.20
2023-05-15T15:08:53.262Z,1.02
2023-05-15T15:11:38.743Z,1.50
2023-05-15T15:14:24.266Z,1.95
2023-05-15T15:17:09.868Z,1.00
2023-05-15T15:19:55.427Z,1.10
2023-05-15T15:22:41.005Z,1.33
2023-05-15T15:25:26.829Z,0.80
2023-05-15T15:28:13.081Z,1.10
2023-05-15T15:30:58.400Z,1.55
2023-05-15T15:33:44.105Z,1.35
2023-05-15T15:36:29.772Z,2.35
2023-05-15T15:39:15.010Z,1.45
2023-05-15T15:42:00.429Z,1.60
2023-05-15T15:44:45.962Z,1.48
2023-05-15T15:47:32.072Z,1.38
2023-05-15T15:50:17.839Z,1.50
2023-05-15T15:53:03.337Z,1.50
2023-05-15T15:55:48.690Z,1.10
2023-05-15T15:58:34.493Z,1.45
2023-05-15T16:01:20.655Z,1.63
2023-05-15T16:04:06.118Z,1.90
2023-05-15T16:06:51.466Z,1.15
2023-05-15T16:09:37.247Z,1.58
2023-05-15T16:12:22.511Z,1.10
2023-05-15T16:15:21.720Z,1.55
2023-05-15T16:18:08.278Z,1.70
2023-05-15T16:20:53.756Z,1.70
2023-05-15T16:23:42.657Z,2.20
2023-05-15T16:26:27.897Z,1.48
2023-05-15T16:29:13.320Z,1.58
2023-05-15T16:31:59.420Z,2.38
2023-05-15T16:34:44.796Z,1.58
2023-05-15T16:37:30.235Z,1.30
2023-05-15T16:40:16.065Z,2.05
2023-05-15T16:43:01.408Z,1.23
2023-05-15T16:45:47.172Z,1.25
2023-05-15T16:48:32.326Z,1.60
2023-05-15T16:51:17.783Z,1.50
2023-05-15T16:54:03.395Z,1.40
2023-05-15T16:56:48.971Z,1.90
2023-05-15T16:59:34.507Z,1.83
2023-05-15T17:02:19.934Z,1.48
2023-05-15T17:05:09.531Z,1.85
2023-05-15T17:07:55.192Z,1.40
2023-05-15T17:10:40.984Z,3.75
2023-05-15T17:13:27.741Z,1.58
2023-05-15T17:16:13.297Z,1.55
2023-05-15T17:18:58.927Z,1.30
2023-05-15T17:21:45.652Z,1.63
2023-05-15T17:24:46.340Z,1.85
2023-05-15T17:27:39.781Z,1.50
2023-05-15T17:30:25.900Z,1.80
2023-05-15T17:33:11.377Z,1.77
2023-05-15T17:35:56.999Z,1.88
2023-05-15T17:38:42.373Z,1.40
2023-05-15T17:41:28.549Z,2.13
2023-05-15T17:44:13.745Z,1.60
2023-05-15T17:46:59.610Z,1.50
2023-05-15T17:49:44.883Z,2.33
2023-05-15T17:52:30.403Z,1.50
2023-05-15T17:55:16.258Z,1.90
2023-05-15T17:58:01.643Z,1.77
2023-05-15T18:00:47.611Z,1.80
2023-05-15T18:03:34.358Z,2.05
2023-05-15T18:06:20.450Z,1.60
2023-05-15T18:09:06.533Z,1.63
2023-05-15T18:11:52.073Z,1.10
2023-05-15T18:14:39.213Z,1.73
2023-05-15T18:17:26.029Z,1.40
2023-05-15T18:20:12.032Z,1.30
2023-05-15T18:22:57.309Z,1.45
2023-05-15T18:25:42.938Z,1.52
2023-05-15T18:28:28.452Z,1.83
2023-05-15T18:31:14.358Z,1.40
2023-05-15T18:34:01.030Z,1.60
2023-05-15T18:36:46.565Z,1.45
2023-05-15T18:39:32.160Z,1.45
2023-05-15T18:42:17.966Z,1.17
2023-05-15T18:45:03.341Z,1.30
2023-05-15T18:47:48.865Z,1.35
2023-05-15T18:50:35.487Z,1.05
2023-05-15T18:53:20.983Z,1.48
2023-05-15T18:56:06.294Z,1.58
2023-05-15T18:58:51.873Z,1.70
2023-05-15T19:01:37.704Z,1.52
2023-05-15T19:04:23.797Z,1.30
2023-05-15T19:07:09.449Z,1.42
2023-05-15T19:09:55.121Z,1.65
2023-05-15T19:12:40.492Z,1.52
2023-05-15T19:15:26.710Z,1.30
2023-05-15T19:18:12.243Z,1.40
2023-05-15T19:20:57.879Z,1.27
2023-05-15T19:23:43.269Z,1.50
2023-05-15T19:26:28.640Z,1.40
2023-05-15T19:29:13.986Z,1.73
2023-05-15T19:31:59.442Z,1.52
2023-05-15T19:34:46.189Z,1.77
2023-05-15T19:37:31.356Z,1.80
2023-05-15T19:40:17.094Z,1.58
2023-05-15T19:43:02.723Z,1.50
2023-05-15T19:45:48.500Z,1.25
2023-05-15T19:48:34.198Z,1.20
2023-05-15T19:51:19.801Z,1.63
2023-05-15T19:54:05.656Z,1.40
2023-05-15T19:56:51.351Z,1.63
2023-05-15T19:59:36.933Z,1.90
2023-05-15T20:02:22.792Z,1.95
2023-05-15T20:05:08.741Z,2.10
2023-05-15T20:07:54.986Z,1.85
2023-05-15T20:10:41.209Z,2.08
2023-05-15T20:13:26.696Z,2.25
2023-05-15T20:16:13.933Z,2.55
2023-05-15T20:18:59.885Z,2.45
2023-05-15T20:21:45.252Z,3.15
2023-05-15T20:24:32.273Z,1.95
2023-05-15T20:27:18.063Z,2.00
2023-05-15T20:30:04.499Z,1.60
2023-05-15T20:32:50.207Z,1.92
2023-05-15T20:35:37.087Z,2.10
2023-05-15T20:38:25.430Z,2.45
2023-05-15T20:41:11.383Z,1.90
2023-05-15T20:43:57.061Z,2.60
2023-05-15T20:46:43.586Z,2.65
2023-05-15T20:49:29.147Z,4.05
2023-05-15T20:52:14.383Z,2.30
2023-05-15T20:55:00.139Z,1.92
2023-05-15T20:57:47.565Z,2.10
2023-05-15T21:00:33.298Z,2.28
2023-05-15T21:03:18.960Z,1.90
2023-05-15T21:06:04.729Z,2.10
2023-05-15T21:08:50.146Z,2.53
2023-05-15T21:11:35.800Z,2.28
2023-05-15T21:14:21.291Z,2.13
2023-05-15T21:17:06.881Z,3.05
2023-05-15T21:19:52.354Z,2.78
2023-05-15T21:22:37.996Z,2.95
2023-05-15T21:25:23.735Z,2.70
2023-05-15T21:28:09.282Z,3.40
2023-05-15T21:30:54.669Z,4.35
2023-05-15T21:33:41.251Z,3.63
2023-05-15T21:36:26.542Z,3.67
2023-05-15T21:39:12.404Z,3.35
2023-05-15T21:41:57.534Z,2.92
2023-05-15T21:44:43.097Z,3.30
2023-05-15T21:47:28.696Z,3.28
2023-05-15T21:50:14.321Z,3.25
2023-05-15T21:53:00.035Z,3.25
2023-05-15T21:55:45.492Z,2.38
2023-05-15T21:58:32.058Z,2.20
2023-05-15T22:01:17.812Z,2.22
2023-05-15T22:04:04.180Z,2.47
2023-05-15T22:06:49.477Z,2.45
2023-05-15T22:09:35.002Z,3.20
2023-05-15T22:12:21.022Z,2.60
2023-05-15T22:15:07.253Z,2.40
2023-05-15T22:17:57.168Z,2.30
2023-05-15T22:20:47.720Z,2.42
2023-05-15T22:23:33.182Z,2.50
2023-05-15T22:26:20.478Z,2.20
2023-05-15T22:29:06.448Z,2.40
2023-05-15T22:31:52.443Z,2.80
2023-05-15T22:34:37.644Z,3.10
2023-05-15T22:37:23.214Z,2.85
2023-05-15T22:40:10.591Z,3.03
2023-05-15T22:42:56.208Z,2.83
2023-05-15T22:45:41.846Z,2.63
2023-05-15T22:48:27.726Z,3.13
2023-05-15T22:51:13.111Z,3.17
2023-05-15T22:53:58.740Z,2.75
2023-05-15T22:56:44.161Z,3.13
2023-05-15T22:59:29.664Z,2.90
2023-05-15T23:02:15.257Z,2.90
2023-05-15T23:05:00.724Z,3.80
2023-05-15T23:07:46.496Z,3.28
2023-05-15T23:10:31.787Z,3.10
2023-05-15T23:13:17.326Z,3.33
2023-05-15T23:16:02.810Z,3.92
2023-05-15T23:18:48.365Z,3.88
2023-05-15T23:21:33.989Z,3.67
2023-05-15T23:24:19.373Z,3.40
2023-05-15T23:27:05.678Z,4.28
2023-05-15T23:29:51.628Z,3.10
2023-05-15T23:32:37.025Z,3.17
2023-05-15T23:35:23.000Z,3.40
2023-05-15T23:38:08.142Z,3.90
2023-05-15T23:40:53.755Z,3.78
2023-05-15T23:43:39.397Z,3.28
2023-05-15T23:46:25.907Z,2.85
2023-05-15T23:49:11.577Z,3.67
2023-05-15T23:51:56.926Z,3.28
2023-05-15T23:54:42.785Z,3.13
2023-05-15T23:57:28.475Z,3.15
